Sevier River near Sigurd




Date Battery Voltage (V) Panel Temperature (degC) River Stage (ft) River Discharge (cfs)
04/01/2017 13.39 12.54 1.76 95
04/02/2017 13.44 11.00 1.75 93
04/03/2017 13.40 7.13 1.74 93
04/04/2017 13.53 7.30 1.67 84
04/05/2017 13.50 9.38 1.71 88
04/06/2017 13.40 14.25 1.69 86
04/07/2017 13.37 17.31 1.60 75
04/08/2017 13.40 15.75 1.48 64
04/09/2017 13.54 7.80 1.41 57
04/10/2017 13.47 8.87 1.36 52
04/11/2017 13.44 11.94 1.32 48
04/12/2017 13.42 16.47 1.33 49
04/13/2017 13.40 16.53 1.35 51
04/14/2017 13.49 14.04 1.33 49
04/15/2017 13.51 11.11 1.32 49
04/16/2017 13.42 15.16 1.40 55
04/17/2017 13.38 18.00 1.43 58
04/18/2017 13.39 17.89 1.42 58
04/19/2017 13.47 14.17 1.23 41
04/20/2017 13.36 10.15 1.07 30
04/21/2017 13.51 12.25 1.10 31
04/22/2017 13.49 12.40 1.13 34
04/23/2017 13.42 14.99 1.16 36
04/24/2017 13.45 11.69 1.23 41
04/25/2017 13.48 11.06 1.23 41
04/26/2017 13.45 10.78 1.23 41
04/27/2017 13.54 12.26 1.24 42
04/28/2017 13.52 5.69 1.33 50
04/29/2017 13.54 9.99 1.38 54
04/30/2017 13.51 12.18 1.33 49
Average 56
Maximum 95
Minimum 30
Total Volume (AF) 3,359